<< Go Back

Ottawa Hills Back to School
Date: Aug. 24, 2014
Results by Everal Race Management
Contact for Race Timing

Ottawa Hills Back to School 5k

5k Run/Walk

Age Group Results

August 24, 2014

Results Provided by Everal Race Management

Female Overall Winners
Total
Place Name City Bib No Age Overall Time Pace
1 Jeannette Widmer Ottawa Hills OH 4651 17 14 21:58 7:05/M


Male Overall Winners
Total
Place Name City Bib No Age Overall Time Pace
1 Steve Hart Toledo OH 4754 42 1 17:42 5:43/M


Female Masters Winners
Total
Place Name City Bib No Age Overall Time Pace
1 Joan Mathews Maumee OH 4735 57 23 22:34 7:17/M


Male Masters Winners
Total
Place Name City Bib No Age Overall Time Pace
1 Martin Geithmann Ottawa Hills OH 4510 40 2 19:46 6:23/M


No age provided
Total
Place Name City Bib No Age Overall Time Pace
1 Cheri Palko 4773 0 212 48:41 15:42/M


Female 8 & under
Total
Place Name City Bib No Age Overall Time Pace
1 Natalie Chryst Toledo OH 4579 8 50 25:14 8:08/M
2 Madeline Heben Ottawa Hills OH 4775 8 162 39:54 12:52/M
3 Sarah Stone Ottawa Hills OH 4683 8 171 41:56 13:32/M
4 Audrey Nixon Ottawa Hills OH 4617 7 187 45:20 14:37/M


Male 8 & under
Total
Place Name City Bib No Age Overall Time Pace
1 Riley Nixon Ottawa Hills OH 4616 8 74 27:13 8:47/M
2 Asa Karns Toledo OH 4697 8 99 28:59 9:21/M
3 Maddock Griffith Toledo OH 4766 8 100 29:00 9:21/M
4 Rohan Padhye Ottawa Hills OH 4706 6 146 35:05 11:19/M
5 Finn Genzman Ottawa Hills OH 4544 6 157 38:22 12:23/M
6 Caleb Robinson Ottawa Hills OH 4556 8 161 38:43 12:29/M
7 Ketan Tamirisa Ottawa Hills OH 4560 8 165 40:53 13:11/M
8 Grant Croy Ottawa Hills OH 4505 7 178 44:05 14:13/M
9 Owen Keller Ottawa Hills OH 4750 8 182 45:13 14:35/M
10 Mercer Smith Ottawa Hills OH 4600 8 201 46:32 15:01/M
11 Jeremiah Leeds Ottawa Hills OH 4678 6 239 57:56 18:41/M


Female 9 to 12
Total
Place Name City Bib No Age Overall Time Pace
1 Meredith Greeley Ottawa Hills OH 4595 10 36 23:40 7:38/M
2 Meghan Rownd Ottawa Hills OH 4571 10 141 34:42 11:12/M
3 Sophia Stone Ottawa Hills OH 4686 11 151 36:32 11:47/M
4 Christie Hoeflinger Ottawa Hills OH 4565 12 156 38:04 12:17/M
5 Abby Dewhirst Ottawa Hills OH 4549 11 173 43:09 13:55/M
6 Pearl Thurston Ottawa Hills OH 4623 9 174 43:09 13:55/M
7 Emma McLean Ottawa Hills OH 4731 11 214 49:14 15:53/M
8 Madeline Jacob Ottawa Hills OH 4593 11 215 49:15 15:53/M
9 Meredith Randall Toledo OH 4745 11 216 49:18 15:54/M
10 Veronica Eichbauer Ottawa Hills OH 4691 12 217 49:18 15:54/M
11 Ella Langenderfer Ottawa Hills OH 4705 11 235 57:03 18:24/M
12 Elianna Scigliano Toledo OH 4760 10 236 57:04 18:25/M


Male 9 to 12
Total
Place Name City Bib No Age Overall Time Pace
1 John Kight Ottawa Hills OH 4629 12 19 22:13 7:10/M
2 Walker Kight Ottawa Hills OH 4628 10 24 22:42 7:19/M
3 Stephen Souder Ottawa Hills OH 4519 10 29 22:58 7:25/M
4 Trey Souder Ottawa Hills OH 4520 11 33 23:28 7:34/M
5 Drew Hoffman Ottawa Hills OH 4626 12 35 23:34 7:36/M
6 Anthony Adduci Ottawa Hills OH 4542 9 52 25:19 8:10/M
7 Jack Genzman Ottawa Hills OH 4545 10 54 25:39 8:16/M
8 Kyler Charles Ottawa Hills OH 4627 11 55 25:39 8:16/M
9 Ben Catlin Toledo OH 4763 10 57 26:03 8:24/M
10 Gabriel Robinson Ottawa Hills OH 4555 12 64 26:18 8:29/M
11 Darin Croy Ottawa Hills OH 4504 9 70 26:58 8:42/M
12 Blake Gnepper Toledo OH 4764 11 107 29:22 9:28/M
13 Jack Smith Ottawa Hills OH 4601 10 124 31:12 10:04/M
14 Sam Lathrop Ottawa Hills OH 4528 11 142 34:43 11:12/M
15 Maxwell Chandar-Kouba Toledo OH 4761 9 181 45:11 14:35/M
16 Cooper Smith Ottawa Hills OH 4602 12 194 45:59 14:50/M
17 Eddie Griffin Ottawa Hills OH 4588 9 219 49:22 15:55/M


Female 13 to 15
Total
Place Name City Bib No Age Overall Time Pace
1 Mary Shawaker Ottawa Hills OH 4715 14 34 23:33 7:36/M
2 Lauren Rownd Ottawa Hills OH 4572 13 38 23:58 7:44/M
3 Grace Aubry Ottawa Hills OH 4710 13 41 24:13 7:49/M
4 Catherine Kight Ottawa Hills OH 4630 14 77 27:34 8:54/M
5 Bridgette Lay Ottawa Hills OH 4723 15 83 27:53 9:00/M
6 Sophie Summers Ottawa Hills OH 4646 14 90 28:28 9:11/M
7 Isabella Brandstatter Ottawa Hills OH 4644 14 96 28:47 9:17/M
8 Kara Nowakowski Ottawa Hills OH 4551 14 97 28:48 9:17/M
9 Paulina Mendez Ottawa Hills OH 4585 15 110 29:35 9:33/M
10 Julie Hoeflinger Ottawa Hills OH 4568 15 130 32:37 10:31/M
11 Gigi McCluskey Ottawa Hills OH 4607 13 133 33:04 10:40/M
12 Samantha Fischer Ottawa Hills OH 4641 13 136 33:28 10:48/M
13 Karina Jindal Ottawa Hills OH 4642 13 144 34:53 11:15/M
14 Shana Capur Ottawa Hills OH 4676 15 159 38:34 12:26/M
15 Sara Aubry Toledo OH 4726 15 160 38:34 12:26/M
16 Addie Eichbauer Ottawa Hills OH 4692 14 163 40:04 12:55/M
17 Evie Scharer Ottawa Hills OH 4649 14 164 40:04 12:55/M
18 Gabi Thurston Ottawa Hills OH 4622 13 167 40:57 13:13/M
19 Jillian Perkins Ottawa Hills OH 4665 13 175 43:25 14:00/M
20 Miranda King Toledo OH 4746 15 183 45:17 14:36/M
21 Justine Steven Ottawa Hills OH 4756 13 184 45:18 14:37/M
22 Annie Reilly Ottawa Hills OH 4605 15 185 45:18 14:37/M
23 Gillian Heckler Ottawa Hills OH 4704 15 186 45:20 14:37/M
24 Riley Carson Ottawa Hills OH 4561 15 188 45:21 14:38/M
25 Hailey McGee Ottawa Hills OH 4758 15 190 45:22 14:38/M
26 Rebecca Kona-Stanciu Ottawa Hills OH 4700 13 196 46:05 14:52/M
27 Anne Matthes Ottawa Hills OH 4557 15 197 46:07 14:53/M
28 Annika Richards Ottawa Hills OH 4703 14 198 46:12 14:54/M
29 Maleeka Bokhari Toledo OH 4738 15 204 47:00 15:10/M
30 Miranda Hupp Ottawa Hills OH 4667 15 209 47:46 15:25/M
31 Claire McLean Ottawa Hills OH 4729 14 233 56:10 18:07/M


Male 13 to 15
Total
Place Name City Bib No Age Overall Time Pace
1 Joe Boesel Ottawa Hills OH 4606 13 40 24:06 7:46/M
2 Theo Chestnut Ottawa Hills OH 4696 14 48 24:52 8:01/M
3 Spencer Bergman Ottawa Hills MI 4733 15 60 26:13 8:27/M
4 Peter Roman Ottawa Hills OH 4734 15 61 26:13 8:27/M
5 Michael Nichols Ottawa Hills OH 4658 14 62 26:15 8:28/M
6 Nathan Robinson Ottawa Hills OH 4554 14 68 26:44 8:37/M
7 Christian Heidenreich Ottawa Hills OH 4664 13 123 31:12 10:04/M
8 Culver Whitehead Ottawa Hills OH 4661 13 148 36:09 11:40/M
9 Darion Wimmers Ottawa Hills OH 4680 13 154 37:19 12:02/M
10 Weston Hecklinger Toledo OH 4778 14 222 50:05 16:09/M
11 Steven Randall Toledo OH 4744 15 232 56:10 18:07/M


Female 16 to 19
Total
Place Name City Bib No Age Overall Time Pace
1 Sydnee Dupler Toledo OH 4719 16 129 32:32 10:30/M
2 Taylor Thees Ottawa Hills OH 4608 16 131 32:37 10:31/M
3 Kelsey Wade Ottawa Hills OH 4562 17 189 45:22 14:38/M
4 Sophie Cowley Ottawa Hills OH 4732 16 203 46:56 15:08/M
5 Kirsten Cousins Ottawa Hills OH 4558 16 206 47:40 15:23/M
6 Morgan Jacob Ottawa Hills OH 4594 16 207 47:41 15:23/M
7 Morgan Drummonds Ottawa Hills OH 4582 16 221 50:04 16:09/M
8 Irene D'Souza Ottawa Hills OH 4659 17 223 50:06 16:10/M
9 Lauren Nowakowski Ottawa Hills OH 4552 16 224 50:07 16:10/M


Male 16 to 19
Total
Place Name City Bib No Age Overall Time Pace
1 Dan Reilly Ottawa Hills OH 4604 17 3 19:59 6:27/M
2 Garrett Robinson Ottawa Hills OH 4553 16 10 21:17 6:52/M
3 Adam Wright Toledo OH 4740 18 13 21:45 7:01/M
4 Noah Dewhirst Ottawa Hills OH 4548 16 17 22:11 7:09/M
5 Ryan Simon Ottawa Hills OH 4645 16 18 22:11 7:09/M
6 Stephen Wu Ottawa Hills OH 4512 17 21 22:15 7:11/M
7 Kevin Hoeflinger Ottawa Hills OH 4567 16 26 22:53 7:23/M
8 Aidan McMurray Ottawa Hills OH 4673 16 67 26:44 8:37/M


Female 20 to 24
Total
Place Name City Bib No Age Overall Time Pace
1 Jordan Kielty Toledo OH 4586 22 101 29:03 9:22/M
2 Yasmin Gore Ottawa Hills OH 4624 20 115 29:51 9:38/M


Female 25 to 29
Total
Place Name City Bib No Age Overall Time Pace
1 Jennifer Kuhlman Sylvania OH 4537 29 22 22:17 7:11/M
2 Heidi Harnegre Toledo OH 4755 26 27 22:53 7:23/M
3 Lauren Janice Unknown MI 4550 28 58 26:04 8:25/M
4 Jessica Temple Toledo OH 4516 27 69 26:48 8:39/M


Female 30 to 34
Total
Place Name City Bib No Age Overall Time Pace
1 Sara Roemer Ottawa Hills OH 4687 33 39 24:00 7:45/M
2 Ally Effler Ottawa Hills OH 4522 31 109 29:25 9:29/M
3 Liz Puskala Ottawa Hills OH 4722 32 125 31:45 10:15/M
4 Kristie Stevens Unknown MI 4632 33 153 36:43 11:51/M
5 Patty Dowd Toledo OH 4712 32 230 53:16 17:11/M
6 Beth Leeds Ottawa Hills OH 4679 33 241 58:02 18:43/M


Male 30 to 34
Total
Place Name City Bib No Age Overall Time Pace
1 John Roemer Ottawa Hills OH 4688 33 5 20:17 6:33/M
2 Nicholas Snyder Stryker OH 4736 31 15 22:04 7:07/M
3 Mike Vogelsong Toledo OH 4671 31 20 22:14 7:10/M
4 Rich Effler Ottawa Hills OH 4521 32 37 23:48 7:41/M
5 Troy Dowd Toledo OH 4713 32 231 53:17 17:11/M
6 Michael Leeds Ottawa Hills OH 4677 32 240 57:57 18:42/M


Female 35 to 39
Total
Place Name City Bib No Age Overall Time Pace
1 Emily Nixon Ottawa Hills OH 4615 36 51 25:15 8:09/M
2 Erica Krause Toledo OH 4753 38 63 26:17 8:29/M
3 Kori Zake Toledo OH 4515 37 65 26:18 8:29/M
4 Kelly Griffith Toledo OH 4767 39 104 29:08 9:24/M
5 Jen Coleman Ottawa Hills OH 4770 39 132 32:40 10:32/M
6 Rachel Lenzi Toledo OH 4534 37 134 33:06 10:41/M
7 Rochelle Chryst Toledo OH 4581 39 149 36:11 11:40/M
8 Kathy Benecke Perrysburg OH 4669 39 155 37:33 12:07/M
9 Carrie Wcislek Toledo OH 4670 37 193 45:48 14:46/M
10 Megan Walker Ottawa Hills OH 4592 36 229 53:02 17:06/M


Male 35 to 39
Total
Place Name City Bib No Age Overall Time Pace
1 Jessy Bates Sylvania OH 4757 38 12 21:26 6:55/M
2 Jeff Puskala Ottawa Hills OH 4721 35 126 31:45 10:15/M
3 Ajay Padhye Ottawa Hills OH 4709 38 147 35:05 11:19/M
4 Chris Smith Ottawa Hills OH 4599 36 202 46:33 15:01/M


Female 40 to 44
Total
Place Name City Bib No Age Overall Time Pace
1 Isabel Escobar Ottawa Hills OH 4509 41 53 25:36 8:15/M
2 Dawn Whitaker Toledo OH 4718 44 80 27:48 8:58/M
3 Nicolle Smith Ottawa Hills OH 4689 43 102 29:06 9:23/M
4 Lisa Potter Toledo OH 4635 42 105 29:10 9:25/M
5 Erica Scharer Ottawa Hills OH 4647 43 106 29:17 9:27/M
6 Michelle Walker Ottawa Hills OH 4575 42 120 30:44 9:55/M
7 Jennifer Kapadia Ottawa Hills OH 4640 44 122 31:06 10:02/M
8 Amy Waskowiak Toledo OH 4611 44 140 34:36 11:10/M
9 Pam Byrne Ottawa Hills OH 4570 43 143 34:46 11:13/M
10 Nicole Ranes Toledo OH 4634 42 168 41:13 13:18/M
11 Christy Stone Ottawa Hills OH 4684 44 170 41:55 13:31/M
12 Deanna Starn Toledo OH 4698 40 172 42:02 13:34/M
13 Susan Croy Ottawa Hills OH 4503 42 179 44:06 14:14/M
14 Heather Karns Toledo OH 4699 42 180 44:39 14:24/M
15 Joy Kight Ottawa Hills OH 4631 44 205 47:07 15:12/M
16 Rupali Chandar Ottawa Hills OH 4762 44 210 47:57 15:28/M
17 Jen Keller Ottawa Hills OH 4751 43 211 47:58 15:28/M
18 Andrie Williamson Sylvania OH 4774 40 213 48:41 15:42/M
19 Jennifer Griffin Ottawa Hills OH 4587 42 220 49:27 15:57/M


Male 40 to 44
Total
Place Name City Bib No Age Overall Time Pace
1 Andrew Weaver Ottawa Hills OH 4650 42 4 20:09 6:30/M
2 Neil Chryst Toledo OH 4580 41 7 20:40 6:40/M
3 Brian Brandstatter Ottawa Hills OH 4643 44 30 23:18 7:31/M
4 Michael Aubry Ottawa Hills OH 4711 44 42 24:16 7:50/M
5 Keith Hershey Toledo OH 4747 44 45 24:43 7:58/M
6 Bob Keller Ottawa Hills OH 4702 43 56 25:51 8:20/M
7 Julio Rodriguez Toledo OH 4569 42 78 27:42 8:56/M
8 Todd Arndt Ottawa Hills OH 4782 44 82 27:53 9:00/M
9 Dennis Ranes Toledo OH 4633 44 89 28:26 9:10/M
10 Dave Gebers Wauseon OH 4668 42 95 28:37 9:14/M
11 Rob Gnepper Ottawa Hills OH 4690 41 108 29:23 9:29/M
12 Brett Loney Toledo OH 4612 44 139 34:36 11:10/M
13 Paul Genzman Ottawa Hills OH 4546 43 158 38:23 12:23/M
14 Praveen Tamirisa Ottawa Hills OH 4559 44 166 40:53 13:11/M
15 Jason Griffin Ottawa Hills OH 4589 41 218 49:20 15:55/M
16 Garrett Whitehead Ottawa Hills OH 4662 41 225 50:27 16:16/M


Female 45 to 49
Total
Place Name City Bib No Age Overall Time Pace
1 Janette Pande Ottawa Hills OH 4720 46 32 23:26 7:34/M
2 Christy Perros Annarbor MI 4614 46 86 28:00 9:02/M
3 Kathi Souder Ottawa Hills OH 4517 49 88 28:08 9:05/M
4 Kelly Chryst Toledo OH 4714 48 152 36:35 11:48/M
5 Sandy Hupp Ottawa Hills OH 4666 46 208 47:46 15:25/M
6 Rebecca McLean Ottawa Hills OH 4728 46 226 50:27 16:16/M
7 Sabrina Peters-Whitehead Ottawa Hills OH 4660 45 227 50:42 16:21/M
8 Wendy Vischer Ottawa Hills OH 4693 46 234 56:21 18:11/M
9 Laura Randall Toledo OH 4743 47 237 57:15 18:28/M


Male 45 to 49
Total
Place Name City Bib No Age Overall Time Pace
1 Todd Creager Wauseon OH 4739 48 6 20:19 6:33/M
2 George Lathrop Ottawa Hills OH 4526 46 8 20:52 6:44/M
3 Chris Wiederhold Petersburg MI 4741 45 16 22:10 7:09/M
4 James McLean Ottawa Hills OH 4730 45 43 24:16 7:50/M
5 Eric Suiszer Lambertville MI 4777 49 44 24:36 7:56/M
6 Randall Ellingson Ottawa Hills OH 4771 49 59 26:12 8:27/M
7 Todd Kime Ottawa Hills OH 4576 48 79 27:47 8:58/M
8 Keith Lehman Unknown MI 4535 45 85 27:57 9:01/M
9 Jeff Adduci Ottawa Hills OH 4543 47 87 28:01 9:02/M
10 John Eichbauer Ottawa Hills OH 4694 49 98 28:54 9:19/M
11 Gareth Griffith Toledo OH 4769 48 103 29:08 9:24/M
12 Chris Scharer Ottawa Hills OH 4648 47 111 29:36 9:33/M
13 Nathan Walker Ottawa Hills OH 4574 45 117 30:21 9:47/M
14 Ben McMurray Ottawa Hills OH 4672 45 145 34:53 11:15/M
15 Tomer Avidor-Reisr Ottawa Hills OH 4590 47 192 45:45 14:45/M
16 Mike Walker Ottawa Hills OH 4591 47 228 53:02 17:06/M


Female 50 to 54
Total
Place Name City Bib No Age Overall Time Pace
1 Mary Jo Corbey Ottawa Hills OH 4507 50 119 30:33 9:51/M
2 Luann Polito Rocky River OH 4781 50 127 32:27 10:28/M
3 Janet Weber Ottawa Hills OH 4776 50 135 33:28 10:48/M
4 Cindy Hoeflinger Ottawa Hills OH 4564 53 176 43:28 14:01/M
5 Diane Drabek Sylvania OH 4701 50 199 46:18 14:56/M


Male 50 to 54
Total
Place Name City Bib No Age Overall Time Pace
1 Brad Johnson Ottawa Hills OH 4652 51 28 22:55 7:24/M
2 Tom Hauck Ottawa Hills OH 4578 50 31 23:24 7:33/M
3 Granger Souder Ottawa Hills OH 4518 54 47 24:47 8:00/M
4 John Graham Ottawa Hills OH 4501 54 49 25:13 8:08/M
5 Gary Coleman Ottawa Hills OH 4768 51 73 27:09 8:45/M
6 Joe Reilly Ottawa Hills OH 4603 54 76 27:27 8:51/M
7 Kyle Randall Toledo OH 4742 50 91 28:28 9:11/M
8 Tim Corbey Ottawa Hills OH 4508 53 118 30:33 9:51/M
9 John Chestnut Ottawa Hills OH 4695 52 121 30:49 9:56/M
10 Pat Peizz Toledo OH 4780 52 128 32:28 10:28/M
11 Hortense Nichols Ottawa Hills OH 4657 54 150 36:28 11:46/M


Female 55 to 59
Total
Place Name City Bib No Age Overall Time Pace
1 Ingrid Mendez Ottawa Hills OH 4583 59 112 29:42 9:35/M
2 Olive Wu Ottawa Hills OH 4513 55 195 46:03 14:51/M
3 Lauren Hurst Sylvania OH 4752 55 200 46:20 14:57/M


Male 55 to 59
Total
Place Name City Bib No Age Overall Time Pace
1 Tom Hart Ottawa Hills OH 4724 56 11 21:20 6:53/M
2 Greg Prince Ottawa Hills OH 4511 56 25 22:43 7:20/M
3 Tom Kolena Toledo OH 4538 56 46 24:43 7:58/M
4 Chris Heidenreich Ottawa Hills OH 4663 56 66 26:36 8:35/M
5 Greg Boots Lyons OH 4737 55 72 27:02 8:43/M
6 Frederick Stockton Ottawa Hills OH 4639 57 84 27:56 9:01/M
7 Larry Nichols Ottawa Hills OH 4609 59 113 29:43 9:35/M
8 Paul Gore Ottawa Hills OH 4625 56 114 29:51 9:38/M


Female 60 to 64
Total
Place Name City Bib No Age Overall Time Pace
1 Pixie Noble Ottawa Hills OH 4759 63 93 28:36 9:14/M
2 Melinda Robison Montpelier OH 4779 64 169 41:17 13:19/M


Male 60 to 64
Total
Place Name City Bib No Age Overall Time Pace
1 John Longthorne Ottawa Hills OH 4514 60 9 21:03 6:47/M
2 Brian Tischinae Toledo OH 4525 64 71 26:59 8:42/M
3 Jose Mendez Ottawa Hills OH 4584 60 75 27:26 8:51/M
4 Thomas Biblewski Toledo OH 4598 63 81 27:49 8:58/M
5 Eugene Izsak Ottawa Hills OH 4577 63 94 28:37 9:14/M


Female 65 to 69
Total
Place Name City Bib No Age Overall Time Pace
1 Mary Steinhauser La Salle MI 4748 69 137 34:29 11:07/M


Male 65 to 69
Total
Place Name City Bib No Age Overall Time Pace
1 Ray Montague Oregon OH 4716 66 92 28:30 9:12/M
2 John Furchak Unkown MI 4536 65 116 30:19 9:47/M
3 Marlin Short Wauseon OH 4765 66 177 43:59 14:11/M


Male 70 & up
Total
Place Name City Bib No Age Overall Time Pace
1 Carl Anderson Monclova OH 4539 72 138 34:35 11:09/M
2 Cyril Steinhauser La Salle MI 4749 72 191 45:27 14:40/M
3 David Gruwell Ottawa Hills OH 4523 71 238 57:53 18:40/M